Coral Coast — WDF5120 — position and weather

sailwx.info

Track history (hours):
 
Tides and Currents Weather Stations Pressure Air Temp Water Temp Dewpoint Dewpoint Depression Visibility Wind Speed Wind Dir Waves Ship Positions

Coral Coast

Owner: Dann MarineTowing, LC., Chesapeake City, MD. More information available from US FCC via Universal Licensing System and Coast Guard Vessel Documentation Center.

Last reported at 2017-Mar-24 13:33 UTC. Time now 2017-Mar-24 14:01 UTC.
Position N 41°48' W 071°23'.

Length 70 m; draft 5.3 m.

Type: Tug. MMSI: 367459570.

Date/timePositionNaut miles runAvg speedWind from/ knotsBaromVisibWave heightAir tempDewpointWater temp
2017-Mar-24 13:33N 41°48' W 071°23'0 0.1
2017-Mar-24 11:33N 41°48' W 071°23'0 0.0
2017-Mar-24 10:32N 41°48' W 071°23'0 0.0
2017-Mar-24 09:33N 41°48' W 071°23'0 0.0
2017-Mar-24 08:33N 41°48' W 071°23'0 0.0
2017-Mar-24 07:32N 41°48' W 071°23'0 0.0
2017-Mar-24 06:33N 41°48' W 071°23'0 0.0
2017-Mar-24 05:33N 41°48' W 071°23'0 0.0
2017-Mar-24 04:33N 41°48' W 071°23'0 0.0
2017-Mar-24 03:33N 41°48' W 071°23'0 0.0
2017-Mar-24 02:33N 41°48' W 071°23'0 0.0
2017-Mar-24 01:33N 41°48' W 071°23'0 0.0
2017-Mar-24 00:33N 41°48' W 071°23'0 0.0
2017-Mar-23 23:33N 41°48' W 071°23'0 0.0
2017-Mar-23 22:33N 41°48' W 071°23'0 0.0
2017-Mar-23 21:33N 41°48' W 071°23'0 0.0
2017-Mar-23 20:33N 41°48' W 071°23'0 0.0
2017-Mar-23 19:33N 41°48' W 071°23'0 0.0
2017-Mar-23 18:33N 41°48' W 071°23'0 0.0
2017-Mar-23 17:32N 41°48' W 071°23'0 0.0
2017-Mar-23 16:33N 41°48' W 071°23'0 0.0
2017-Mar-23 15:33N 41°48' W 071°23'0 0.0
2017-Mar-23 14:25N 41°48' W 071°23'0 0.0
2017-Mar-23 13:28N 41°48' W 071°23'0 0.0
2017-Mar-23 12:33N 41°48' W 071°23'0 0.0
2017-Mar-23 11:33N 41°48' W 071°23'0 0.0
2017-Mar-23 10:33N 41°48' W 071°23'0 0.0
2017-Mar-23 09:32N 41°48' W 071°23'0 0.0
2017-Mar-23 08:33N 41°48' W 071°23'0 0.0
2017-Mar-23 07:31N 41°48' W 071°23'0 0.0
2017-Mar-23 06:32N 41°48' W 071°23'0 0.0
2017-Mar-23 05:33N 41°48' W 071°23'0 0.0
2017-Mar-23 04:33N 41°48' W 071°23'0 0.0
2017-Mar-23 03:29N 41°48' W 071°23'0 0.0
2017-Mar-23 02:32N 41°48' W 071°23'0 0.0
2017-Mar-23 01:29N 41°48' W 071°23'0 0.0
2017-Mar-23 00:24N 41°48' W 071°23'0 0.0
2017-Mar-21 17:33N 41°48' W 071°23'6 6.2
2017-Mar-21 16:33N 41°42' W 071°20'8 7.2
2017-Mar-21 15:27N 41°34' W 071°19'45 7.5
2017-Mar-21 09:33N 41°13' W 072°11'8 8.5
2017-Mar-21 08:33N 41°10' W 072°21'8 8.1
2017-Mar-21 07:33N 41°07' W 072°31'8 7.8
2017-Mar-21 06:33N 41°04' W 072°41'46 8.5
2017-Mar-21 01:06N 40°54' W 073°41'5 8.9
2017-Mar-21 00:32N 40°51' W 073°46'6 5.9
2017-Mar-20 23:33N 40°47' W 073°52'1 1.5
2017-Mar-20 22:33N 40°46' W 073°51'0 0.0
2017-Mar-20 21:33N 40°46' W 073°51'0 0.0
2017-Mar-20 20:33N 40°46' W 073°51'0 0.0
2017-Mar-20 19:33N 40°46' W 073°51'0 0.0
2017-Mar-20 18:33N 40°46' W 073°51'0 0.0
2017-Mar-20 17:33N 40°46' W 073°51'0 0.0
2017-Mar-20 16:33N 40°46' W 073°51'0 0.0
2017-Mar-20 15:33N 40°46' W 073°51'0 0.0
2017-Mar-20 14:33N 40°46' W 073°51'0 0.0
2017-Mar-20 13:33N 40°46' W 073°51'0 0.0
2017-Mar-20 12:33N 40°46' W 073°51'0 0.0
2017-Mar-20 11:33N 40°46' W 073°51'0 0.0
2017-Mar-20 10:31N 40°46' W 073°51'0 0.0
2017-Mar-20 09:33N 40°46' W 073°51'0 0.0
2017-Mar-20 08:33N 40°46' W 073°51'0 0.0
2017-Mar-20 07:33N 40°46' W 073°51'0 0.0
2017-Mar-20 06:33N 40°46' W 073°51'0 0.0
2017-Mar-20 05:33N 40°46' W 073°51'0 0.0
2017-Mar-20 04:33N 40°46' W 073°51'0 0.0
2017-Mar-20 03:33N 40°46' W 073°51'0 0.0
2017-Mar-20 02:33N 40°46' W 073°51'0 0.0
2017-Mar-20 01:33N 40°46' W 073°51'0 0.0
2017-Mar-20 00:33N 40°46' W 073°51'0 0.0
2017-Mar-19 23:33N 40°46' W 073°51'0 0.0
2017-Mar-19 22:33N 40°46' W 073°51'0 0.0
2017-Mar-19 21:33N 40°46' W 073°51'0 0.0
2017-Mar-19 20:33N 40°46' W 073°51'2 1.8
2017-Mar-19 19:32N 40°48' W 073°52'7 7.1
2017-Mar-19 18:33N 40°43' W 073°58'3 3.2
2017-Mar-19 17:33N 40°45' W 074°01'6 5.7
2017-Mar-19 16:33N 40°51' W 073°57'8 7.5
2017-Mar-19 15:33N 40°58' W 073°54'4 0.1
2017-Mar-17 15:14N 41°01' W 073°53'710.5
2017-Mar-17 14:33N 40°54' W 073°55'1010.1
2017-Mar-17 13:33N 40°45' W 074°01'3 2.8
2017-Mar-17 12:33N 40°46' W 073°57'5 5.0
2017-Mar-17 11:33N 40°46' W 073°51'0 0.0
2017-Mar-17 10:33N 40°46' W 073°51'0 0.0
2017-Mar-17 09:33N 40°46' W 073°51'0 0.0
2017-Mar-17 08:33N 40°46' W 073°51'0 0.0
2017-Mar-17 07:33N 40°46' W 073°51'0 0.0
2017-Mar-17 06:33N 40°46' W 073°51'0 0.0
2017-Mar-17 05:33N 40°46' W 073°51'0 0.0
2017-Mar-17 04:33N 40°46' W 073°51'0 0.0
2017-Mar-17 03:33N 40°46' W 073°51'0 0.0
2017-Mar-17 02:33N 40°46' W 073°51'0 0.0
2017-Mar-17 01:33N 40°46' W 073°51'0 0.0
2017-Mar-17 00:33N 40°46' W 073°51'0 0.0
2017-Mar-16 23:33N 40°46' W 073°51'0 0.0
2017-Mar-16 22:33N 40°46' W 073°51'0 0.0
2017-Mar-16 21:33N 40°46' W 073°51'0 0.0
2017-Mar-16 20:33N 40°46' W 073°51'0 0.0
2017-Mar-16 19:33N 40°46' W 073°51'0 0.0
2017-Mar-16 18:33N 40°46' W 073°51'0 0.0
2017-Mar-16 17:33N 40°46' W 073°51'4 3.8
2017-Mar-16 16:33N 40°47' W 073°55'6 6.3
2017-Mar-16 15:33N 40°42' W 074°00'4 4.0
2017-Mar-16 14:33N 40°46' W 074°00'4 3.7
2017-Mar-16 13:33N 40°49' W 073°58'4 4.2
2017-Mar-16 12:33N 40°53' W 073°56'  
Track history (hours):
 
Tides and Currents Weather Stations Pressure Air Temp Water Temp Dewpoint Dewpoint Depression Visibility Wind Speed Wind Dir Waves Ship Positions

Coral Coast

Owner: Dann MarineTowing, LC., Chesapeake City, MD. More information available from US FCC via Universal Licensing System and Coast Guard Vessel Documentation Center.

Last reported at 2017-Mar-24 13:33 UTC. Time now 2017-Mar-24 14:01 UTC.
Position N 41°48' W 071°23'.

Length 70 m; draft 5.3 m.

Type: Tug. MMSI: 367459570.

Date/timePositionNaut miles runAvg speedWind from/ knotsBaromVisibWave heightAir tempDewpointWater temp
2017-Mar-24 13:33N 41°48' W 071°23'0 0.1
2017-Mar-24 11:33N 41°48' W 071°23'0 0.0
2017-Mar-24 10:32N 41°48' W 071°23'0 0.0
2017-Mar-24 09:33N 41°48' W 071°23'0 0.0
2017-Mar-24 08:33N 41°48' W 071°23'0 0.0
2017-Mar-24 07:32N 41°48' W 071°23'0 0.0
2017-Mar-24 06:33N 41°48' W 071°23'0 0.0
2017-Mar-24 05:33N 41°48' W 071°23'0 0.0
2017-Mar-24 04:33N 41°48' W 071°23'0 0.0
2017-Mar-24 03:33N 41°48' W 071°23'0 0.0
2017-Mar-24 02:33N 41°48' W 071°23'0 0.0
2017-Mar-24 01:33N 41°48' W 071°23'0 0.0
2017-Mar-24 00:33N 41°48' W 071°23'0 0.0
2017-Mar-23 23:33N 41°48' W 071°23'0 0.0
2017-Mar-23 22:33N 41°48' W 071°23'0 0.0
2017-Mar-23 21:33N 41°48' W 071°23'0 0.0
2017-Mar-23 20:33N 41°48' W 071°23'0 0.0
2017-Mar-23 19:33N 41°48' W 071°23'0 0.0
2017-Mar-23 18:33N 41°48' W 071°23'0 0.0
2017-Mar-23 17:32N 41°48' W 071°23'0 0.0
2017-Mar-23 16:33N 41°48' W 071°23'0 0.0
2017-Mar-23 15:33N 41°48' W 071°23'0 0.0
2017-Mar-23 14:25N 41°48' W 071°23'0 0.0
2017-Mar-23 13:28N 41°48' W 071°23'0 0.0
2017-Mar-23 12:33N 41°48' W 071°23'0 0.0
2017-Mar-23 11:33N 41°48' W 071°23'0 0.0
2017-Mar-23 10:33N 41°48' W 071°23'0 0.0
2017-Mar-23 09:32N 41°48' W 071°23'0 0.0
2017-Mar-23 08:33N 41°48' W 071°23'0 0.0
2017-Mar-23 07:31N 41°48' W 071°23'0 0.0
2017-Mar-23 06:32N 41°48' W 071°23'0 0.0
2017-Mar-23 05:33N 41°48' W 071°23'0 0.0
2017-Mar-23 04:33N 41°48' W 071°23'0 0.0
2017-Mar-23 03:29N 41°48' W 071°23'0 0.0
2017-Mar-23 02:32N 41°48' W 071°23'0 0.0
2017-Mar-23 01:29N 41°48' W 071°23'0 0.0
2017-Mar-23 00:24N 41°48' W 071°23'0 0.0
2017-Mar-21 17:33N 41°48' W 071°23'6 6.2
2017-Mar-21 16:33N 41°42' W 071°20'8 7.2
2017-Mar-21 15:27N 41°34' W 071°19'45 7.5
2017-Mar-21 09:33N 41°13' W 072°11'8 8.5
2017-Mar-21 08:33N 41°10' W 072°21'8 8.1
2017-Mar-21 07:33N 41°07' W 072°31'8 7.8
2017-Mar-21 06:33N 41°04' W 072°41'46 8.5
2017-Mar-21 01:06N 40°54' W 073°41'5 8.9
2017-Mar-21 00:32N 40°51' W 073°46'6 5.9
2017-Mar-20 23:33N 40°47' W 073°52'1 1.5
2017-Mar-20 22:33N 40°46' W 073°51'0 0.0
2017-Mar-20 21:33N 40°46' W 073°51'0 0.0
2017-Mar-20 20:33N 40°46' W 073°51'0 0.0
2017-Mar-20 19:33N 40°46' W 073°51'0 0.0
2017-Mar-20 18:33N 40°46' W 073°51'0 0.0
2017-Mar-20 17:33N 40°46' W 073°51'0 0.0
2017-Mar-20 16:33N 40°46' W 073°51'0 0.0
2017-Mar-20 15:33N 40°46' W 073°51'0 0.0
2017-Mar-20 14:33N 40°46' W 073°51'0 0.0
2017-Mar-20 13:33N 40°46' W 073°51'0 0.0
2017-Mar-20 12:33N 40°46' W 073°51'0 0.0
2017-Mar-20 11:33N 40°46' W 073°51'0 0.0
2017-Mar-20 10:31N 40°46' W 073°51'0 0.0
2017-Mar-20 09:33N 40°46' W 073°51'0 0.0
2017-Mar-20 08:33N 40°46' W 073°51'0 0.0
2017-Mar-20 07:33N 40°46' W 073°51'0 0.0
2017-Mar-20 06:33N 40°46' W 073°51'0 0.0
2017-Mar-20 05:33N 40°46' W 073°51'0 0.0
2017-Mar-20 04:33N 40°46' W 073°51'0 0.0
2017-Mar-20 03:33N 40°46' W 073°51'0 0.0
2017-Mar-20 02:33N 40°46' W 073°51'0 0.0
2017-Mar-20 01:33N 40°46' W 073°51'0 0.0
2017-Mar-20 00:33N 40°46' W 073°51'0 0.0
2017-Mar-19 23:33N 40°46' W 073°51'0 0.0
2017-Mar-19 22:33N 40°46' W 073°51'0 0.0
2017-Mar-19 21:33N 40°46' W 073°51'0 0.0
2017-Mar-19 20:33N 40°46' W 073°51'2 1.8
2017-Mar-19 19:32N 40°48' W 073°52'7 7.1
2017-Mar-19 18:33N 40°43' W 073°58'3 3.2
2017-Mar-19 17:33N 40°45' W 074°01'6 5.7
2017-Mar-19 16:33N 40°51' W 073°57'8 7.5
2017-Mar-19 15:33N 40°58' W 073°54'4 0.1
2017-Mar-17 15:14N 41°01' W 073°53'710.5
2017-Mar-17 14:33N 40°54' W 073°55'1010.1
2017-Mar-17 13:33N 40°45' W 074°01'3 2.8
2017-Mar-17 12:33N 40°46' W 073°57'5 5.0
2017-Mar-17 11:33N 40°46' W 073°51'0 0.0
2017-Mar-17 10:33N 40°46' W 073°51'0 0.0
2017-Mar-17 09:33N 40°46' W 073°51'0 0.0
2017-Mar-17 08:33N 40°46' W 073°51'0 0.0
2017-Mar-17 07:33N 40°46' W 073°51'0 0.0
2017-Mar-17 06:33N 40°46' W 073°51'0 0.0
2017-Mar-17 05:33N 40°46' W 073°51'0 0.0
2017-Mar-17 04:33N 40°46' W 073°51'0 0.0
2017-Mar-17 03:33N 40°46' W 073°51'0 0.0
2017-Mar-17 02:33N 40°46' W 073°51'0 0.0
2017-Mar-17 01:33N 40°46' W 073°51'0 0.0
2017-Mar-17 00:33N 40°46' W 073°51'0 0.0
2017-Mar-16 23:33N 40°46' W 073°51'0 0.0
2017-Mar-16 22:33N 40°46' W 073°51'0 0.0
2017-Mar-16 21:33N 40°46' W 073°51'0 0.0
2017-Mar-16 20:33N 40°46' W 073°51'0 0.0
2017-Mar-16 19:33N 40°46' W 073°51'0 0.0
2017-Mar-16 18:33N 40°46' W 073°51'0 0.0
2017-Mar-16 17:33N 40°46' W 073°51'4 3.8
2017-Mar-16 16:33N 40°47' W 073°55'6 6.3
2017-Mar-16 15:33N 40°42' W 074°00'4 4.0
2017-Mar-16 14:33N 40°46' W 074°00'4 3.7
2017-Mar-16 13:33N 40°49' W 073°58'4 4.2
2017-Mar-16 12:33N 40°53' W 073°56'  

Dump ship's entire track history